createdAt,value
2019-01-25T00:03:47.797Z,-2.00
2019-01-25T00:08:43.952Z,-2.00
2019-01-25T00:13:42.657Z,-2.00
2019-01-25T00:18:39.975Z,-2.00
2019-01-25T00:23:36.339Z,-2.00
2019-01-25T00:28:32.277Z,-2.10
2019-01-25T00:33:30.381Z,-2.00
2019-01-25T00:38:27.700Z,-2.10
2019-01-25T00:43:26.626Z,-2.10
2019-01-25T00:48:25.977Z,-2.00
2019-01-25T00:53:26.204Z,-2.00
2019-01-25T00:58:22.488Z,-2.00
2019-01-25T01:03:18.462Z,-2.00
2019-01-25T01:08:14.456Z,-2.00
2019-01-25T01:13:10.701Z,-2.00
2019-01-25T01:18:07.854Z,-2.10
2019-01-25T01:23:05.258Z,-2.00
2019-01-25T01:28:01.574Z,-2.00
2019-01-25T01:33:00.033Z,-2.00
2019-01-25T01:37:56.434Z,-2.00
2019-01-25T01:42:53.179Z,-2.00
2019-01-25T01:47:55.355Z,-2.00
2019-01-25T01:52:52.736Z,-2.00
2019-01-25T01:57:58.389Z,-2.00
2019-01-25T02:02:54.398Z,-2.00
2019-01-25T02:07:53.627Z,-2.10
2019-01-25T02:12:50.960Z,-2.10
2019-01-25T02:17:48.615Z,-2.10
2019-01-25T02:22:47.674Z,-2.20
2019-01-25T02:27:45.079Z,-2.10
2019-01-25T02:32:41.965Z,-2.00
2019-01-25T02:37:38.238Z,-2.00
2019-01-25T02:42:35.067Z,-2.10
2019-01-25T02:47:32.915Z,-2.00
2019-01-25T02:52:30.194Z,-2.00
2019-01-25T02:57:26.552Z,-2.00
2019-01-25T03:02:23.751Z,-2.20
2019-01-25T03:07:20.069Z,-2.20
2019-01-25T03:12:16.570Z,-2.20
2019-01-25T03:17:12.763Z,-2.20
2019-01-25T03:22:09.113Z,-2.20
2019-01-25T03:27:05.550Z,-2.20
2019-01-25T03:32:02.934Z,-2.20
2019-01-25T03:37:00.173Z,-2.20
2019-01-25T03:41:57.188Z,-2.20
2019-01-25T03:46:53.237Z,-2.20
2019-01-25T03:51:49.191Z,-2.20
2019-01-25T03:56:47.970Z,-2.30
2019-01-25T04:01:44.014Z,-2.30
2019-01-25T04:06:43.112Z,-2.40
2019-01-25T04:11:39.269Z,-2.30
2019-01-25T04:16:35.165Z,-2.20
2019-01-25T04:21:31.910Z,-2.30
2019-01-25T04:26:28.641Z,-2.30
2019-01-25T04:31:28.705Z,-2.20
2019-01-25T04:36:24.615Z,-2.20
2019-01-25T04:41:21.340Z,-2.30
2019-01-25T04:46:17.143Z,-2.40
2019-01-25T04:51:13.062Z,-2.60
2019-01-25T04:56:09.271Z,-2.70
2019-01-25T05:01:15.844Z,-3.00
2019-01-25T05:06:14.966Z,-3.10
2019-01-25T05:11:33.814Z,-3.50
2019-01-25T05:16:31.159Z,-3.60
2019-01-25T05:21:29.246Z,-3.70
2019-01-25T05:26:28.348Z,-3.70
2019-01-25T05:31:30.885Z,-3.80
2019-01-25T05:36:27.678Z,-3.70
2019-01-25T05:41:28.617Z,-3.80
2019-01-25T05:46:27.031Z,-3.80
2019-01-25T05:51:34.549Z,-3.70
2019-01-25T05:56:33.776Z,-3.60
2019-01-25T06:01:40.533Z,-3.50
2019-01-25T06:06:44.021Z,-3.40
2019-01-25T06:11:41.704Z,-3.40
2019-01-25T06:16:49.411Z,-3.30
2019-01-25T06:22:49.764Z,-3.30
2019-01-25T06:47:47.509Z,-3.10
2019-01-25T06:53:42.633Z,-3.20
2019-01-25T06:59:05.450Z,-3.30
2019-01-25T07:10:13.022Z,-3.20
2019-01-25T07:27:40.790Z,-3.30
2019-01-25T07:32:57.268Z,-3.30
2019-01-25T07:37:57.766Z,-3.40
2019-01-25T07:43:05.349Z,-3.30
2019-01-25T07:49:31.485Z,-3.20
2019-01-25T07:55:02.770Z,-3.00
2019-01-25T08:17:52.881Z,-2.30
2019-01-25T08:23:11.817Z,-2.20
2019-01-25T08:28:25.857Z,-2.10
2019-01-25T08:33:28.025Z,-2.10
2019-01-25T08:38:24.006Z,-2.20
2019-01-25T08:43:32.865Z,-2.20
2019-01-25T08:49:35.172Z,-2.10
2019-01-25T08:54:31.111Z,-2.20
2019-01-25T08:59:27.166Z,-2.00
2019-01-25T09:04:26.354Z,-1.90
2019-01-25T09:09:25.791Z,-1.80
2019-01-25T09:14:23.207Z,-1.60
2019-01-25T09:20:00.187Z,-1.50
2019-01-25T09:25:04.513Z,-1.60
2019-01-25T09:30:03.005Z,-1.30
2019-01-25T09:35:07.839Z,-1.00
2019-01-25T09:40:04.004Z,-0.80
2019-01-25T09:45:06.029Z,-0.70
2019-01-25T09:50:01.892Z,-0.60
2019-01-25T09:54:58.036Z,-0.70
2019-01-25T10:00:08.215Z,-0.80
2019-01-25T10:05:13.335Z,-0.80
2019-01-25T10:10:12.498Z,-0.90
2019-01-25T10:15:12.271Z,-1.00
2019-01-25T10:20:11.605Z,-0.90
2019-01-25T10:25:12.423Z,-0.80
2019-01-25T10:30:17.288Z,-0.60
2019-01-25T10:35:23.711Z,-0.50
2019-01-25T10:40:22.362Z,-0.30
2019-01-25T10:45:44.521Z,-0.40
2019-01-25T10:50:42.787Z,-0.40
2019-01-25T10:55:39.147Z,-0.50
2019-01-25T11:00:38.194Z,-0.60
2019-01-25T11:05:40.536Z,-0.60
2019-01-25T11:10:37.841Z,-0.80
2019-01-25T11:15:39.536Z,-0.80
2019-01-25T11:20:35.413Z,-0.80
2019-01-25T11:25:35.518Z,-0.60
2019-01-25T11:30:31.468Z,-0.20
2019-01-25T11:35:29.955Z,-0.10
2019-01-25T11:40:32.207Z,0.10
2019-01-25T11:45:37.160Z,-0.10
2019-01-25T11:50:35.145Z,-0.30
2019-01-25T11:55:31.036Z,-0.30
2019-01-25T12:00:33.303Z,-0.20
2019-01-25T12:05:29.449Z,-0.20
2019-01-25T12:10:38.225Z,-0.10
2019-01-25T12:15:34.352Z,-0.10
2019-01-25T12:21:31.535Z,-0.30
2019-01-25T12:26:56.978Z,-0.40
2019-01-25T12:31:53.360Z,-0.50
2019-01-25T12:36:54.322Z,-0.60
2019-01-25T12:41:54.239Z,-0.60
2019-01-25T12:46:58.762Z,-0.60
2019-01-25T12:52:08.306Z,-0.60
2019-01-25T12:57:19.455Z,-0.70
2019-01-25T13:02:26.517Z,-0.80
2019-01-25T13:07:25.568Z,-0.80
2019-01-25T13:12:37.661Z,-0.70
2019-01-25T13:17:49.009Z,-0.70
2019-01-25T13:22:52.831Z,-0.50
2019-01-25T13:27:50.946Z,-0.30
2019-01-25T13:32:46.995Z,-0.20
2019-01-25T13:38:45.763Z,-0.20
2019-01-25T13:43:45.866Z,-0.20
2019-01-25T13:48:43.284Z,-0.10
2019-01-25T13:53:39.262Z,0.00
2019-01-25T13:58:35.251Z,0.10
2019-01-25T14:03:31.326Z,0.20
2019-01-25T14:08:29.306Z,0.20
2019-01-25T14:13:34.302Z,0.30
2019-01-25T14:18:33.892Z,0.20
2019-01-25T14:23:30.139Z,0.20
2019-01-25T14:28:26.137Z,0.10
2019-01-25T14:33:22.386Z,0.10
2019-01-25T14:38:24.481Z,0.10
2019-01-25T14:44:03.256Z,0.10
2019-01-25T14:49:02.602Z,0.10
2019-01-25T14:54:02.036Z,0.00
2019-01-25T14:58:58.185Z,0.00
2019-01-25T15:03:54.358Z,0.00
2019-01-25T15:08:57.200Z,0.00
2019-01-25T15:14:02.285Z,0.00
2019-01-25T15:19:07.984Z,0.00
2019-01-25T15:24:18.423Z,0.00
2019-01-25T15:29:16.849Z,-0.10
2019-01-25T15:34:17.885Z,-0.10
2019-01-25T15:39:19.871Z,-0.10
2019-01-25T15:44:27.252Z,-0.20
2019-01-25T15:49:21.001Z,-0.20
2019-01-25T15:54:17.306Z,-0.30
2019-01-25T15:59:51.455Z,-0.30
2019-01-25T16:04:47.716Z,-0.40
2019-01-25T16:11:03.837Z,-0.50
2019-01-25T16:16:17.350Z,-0.60
2019-01-25T16:21:15.247Z,-0.70
2019-01-25T16:26:23.676Z,-0.80
2019-01-25T16:31:24.529Z,-0.90
2019-01-25T16:36:40.774Z,-1.00
2019-01-25T16:41:46.867Z,-1.10
2019-01-25T16:46:50.526Z,-1.20
2019-01-25T16:52:50.306Z,-1.30
2019-01-25T16:58:01.276Z,-1.30
2019-01-25T17:03:18.092Z,-1.40
2019-01-25T17:08:16.335Z,-1.40
2019-01-25T17:14:06.448Z,-1.40
2019-01-25T17:19:39.664Z,-1.50
2019-01-25T17:24:44.547Z,-1.50
2019-01-25T17:30:21.356Z,-1.60
2019-01-25T17:42:13.485Z,-1.70
2019-01-25T17:55:01.971Z,-1.90
2019-01-25T18:26:06.343Z,-2.20
2019-01-25T18:31:32.216Z,-2.20
2019-01-25T18:36:28.941Z,-2.20
2019-01-25T18:41:30.315Z,-2.40
2019-01-25T18:46:41.360Z,-2.50
2019-01-25T18:58:10.900Z,-2.60
2019-01-25T19:03:32.615Z,-2.50
2019-01-25T19:08:28.779Z,-2.40
2019-01-25T19:13:39.458Z,-2.30
2019-01-25T19:18:37.400Z,-2.40
2019-01-25T19:23:42.208Z,-2.40
2019-01-25T19:28:41.045Z,-2.50
2019-01-25T19:33:48.718Z,-2.50
2019-01-25T19:39:07.269Z,-2.40
2019-01-25T19:45:21.500Z,-2.40
2019-01-25T19:57:58.087Z,-2.40
2019-01-25T20:03:39.792Z,-2.30
2019-01-25T20:08:54.619Z,-2.40
2019-01-25T20:13:51.247Z,-2.40
2019-01-25T20:19:02.827Z,-2.30
2019-01-25T20:24:04.067Z,-2.30
2019-01-25T20:29:16.085Z,-2.40
2019-01-25T20:34:53.781Z,-2.40
2019-01-25T20:41:03.709Z,-2.40
2019-01-25T20:46:35.303Z,-2.40
2019-01-25T20:51:37.193Z,-2.30
2019-01-25T20:56:37.785Z,-2.30
2019-01-25T21:01:43.398Z,-2.30
2019-01-25T21:06:53.857Z,-2.20
2019-01-25T21:12:28.154Z,-2.20
2019-01-25T21:18:27.909Z,-2.10
2019-01-25T21:23:24.255Z,-2.10
2019-01-25T21:28:23.570Z,-2.10
2019-01-25T21:33:24.607Z,-2.00
2019-01-25T21:38:22.786Z,-2.10
2019-01-25T21:43:18.797Z,-2.10
2019-01-25T21:48:19.110Z,-2.20
2019-01-25T21:53:15.532Z,-2.10
2019-01-25T21:58:14.710Z,-2.00
2019-01-25T22:03:13.743Z,-2.00
2019-01-25T22:08:09.990Z,-2.00
2019-01-25T22:13:09.399Z,-1.90
2019-01-25T22:18:09.019Z,-1.80
2019-01-25T22:35:44.930Z,-1.80
2019-01-25T22:42:21.415Z,-1.80
2019-01-25T22:53:54.408Z,-1.80
2019-01-25T22:59:01.387Z,-1.80
2019-01-25T23:04:46.703Z,-1.80
2019-01-25T23:10:29.395Z,-1.80
2019-01-25T23:15:27.444Z,-1.70
2019-01-25T23:20:36.223Z,-1.70
2019-01-25T23:25:38.260Z,-1.60
2019-01-25T23:30:34.506Z,-1.60
2019-01-25T23:35:33.927Z,-1.60
2019-01-25T23:40:35.265Z,-1.50
2019-01-25T23:45:34.606Z,-1.60
2019-01-25T23:50:33.294Z,-1.60
2019-01-25T23:55:29.440Z,-1.50
